createdAt,value
2022-10-05T00:01:30.514Z,13.70
2022-10-05T00:04:05.797Z,13.68
2022-10-05T00:06:36.483Z,13.75
2022-10-05T00:09:14.182Z,13.65
2022-10-05T00:11:45.699Z,13.61
2022-10-05T00:14:20.685Z,13.70
2022-10-05T00:16:51.859Z,13.61
2022-10-05T00:19:24.265Z,13.68
2022-10-05T00:21:52.013Z,13.68
2022-10-05T00:24:21.318Z,13.71
2022-10-05T00:26:57.645Z,13.69
2022-10-05T00:29:27.560Z,13.77
2022-10-05T00:31:55.443Z,13.79
2022-10-05T00:34:25.390Z,13.81
2022-10-05T00:36:53.355Z,13.78
2022-10-05T00:39:21.489Z,13.82
2022-10-05T00:42:04.144Z,13.81
2022-10-05T00:44:40.679Z,13.83
2022-10-05T00:47:19.202Z,13.88
2022-10-05T00:50:06.890Z,13.87
2022-10-05T00:52:45.977Z,13.88
2022-10-05T00:55:22.193Z,13.85
2022-10-05T00:58:02.097Z,13.90
2022-10-05T01:00:37.303Z,13.90
2022-10-05T01:03:12.762Z,13.89
2022-10-05T01:05:56.051Z,13.92
2022-10-05T01:08:36.791Z,13.91
2022-10-05T01:11:11.464Z,13.88
2022-10-05T01:13:49.484Z,13.88
2022-10-05T01:16:27.643Z,13.91
2022-10-05T01:19:02.390Z,13.88
2022-10-05T01:21:35.843Z,13.84
2022-10-05T01:24:34.142Z,13.83
2022-10-05T01:27:20.048Z,13.83
2022-10-05T01:29:55.745Z,13.78
2022-10-05T01:32:31.528Z,13.76
2022-10-05T01:35:10.909Z,13.73
2022-10-05T01:37:52.281Z,13.78
2022-10-05T01:40:29.273Z,13.76
2022-10-05T01:43:07.954Z,13.71
2022-10-05T01:45:46.969Z,13.73
2022-10-05T01:48:23.428Z,13.69
2022-10-05T01:51:01.419Z,13.65
2022-10-05T01:53:38.526Z,13.62
2022-10-05T01:56:15.606Z,13.56
2022-10-05T01:58:54.608Z,13.54
2022-10-05T02:01:33.198Z,13.48
2022-10-05T02:04:08.309Z,13.51
2022-10-05T02:06:41.698Z,13.46
2022-10-05T02:09:15.554Z,13.52
2022-10-05T02:11:48.467Z,13.47
2022-10-05T02:14:22.227Z,13.51
2022-10-05T02:16:55.831Z,13.54
2022-10-05T02:19:30.574Z,13.53
2022-10-05T02:22:06.226Z,13.47
2022-10-05T02:24:40.372Z,13.50
2022-10-05T02:27:10.880Z,13.45
2022-10-05T02:29:46.584Z,13.48
2022-10-05T02:32:22.121Z,13.47
2022-10-05T02:34:57.655Z,13.50
2022-10-05T02:37:35.241Z,13.49
2022-10-05T02:40:17.249Z,13.42
2022-10-05T02:42:54.741Z,13.49
2022-10-05T02:45:33.455Z,13.40
2022-10-05T02:48:11.953Z,13.50
2022-10-05T02:50:49.131Z,13.47
2022-10-05T02:53:26.595Z,13.50
2022-10-05T02:56:08.280Z,13.51
2022-10-05T02:58:45.961Z,13.52
2022-10-05T03:01:25.842Z,13.52
2022-10-05T03:04:08.484Z,13.55
2022-10-05T03:06:45.505Z,13.57
2022-10-05T03:09:16.454Z,13.61
2022-10-05T03:11:52.344Z,13.64
2022-10-05T03:14:27.193Z,13.63
2022-10-05T03:17:07.428Z,13.68
2022-10-05T03:19:54.363Z,13.61
2022-10-05T03:22:35.203Z,13.69
2022-10-05T03:25:37.300Z,13.73
2022-10-05T03:28:12.260Z,13.77
2022-10-05T03:30:49.335Z,13.78
2022-10-05T03:33:26.500Z,13.70
2022-10-05T03:36:06.086Z,13.80
2022-10-05T03:38:43.878Z,13.79
2022-10-05T03:41:19.165Z,13.79
2022-10-05T03:44:01.178Z,13.81
2022-10-05T03:46:40.369Z,13.82
2022-10-05T03:49:21.436Z,13.79
2022-10-05T03:51:54.822Z,13.62
2022-10-05T03:54:25.624Z,13.82
2022-10-05T03:56:56.721Z,13.85
2022-10-05T03:59:32.588Z,13.83
2022-10-05T04:02:06.123Z,13.85
2022-10-05T04:04:37.793Z,13.86
2022-10-05T04:07:12.728Z,13.73
2022-10-05T04:09:43.895Z,13.85
2022-10-05T04:12:21.761Z,13.82
2022-10-05T04:14:51.940Z,13.74
2022-10-05T04:17:26.603Z,13.79
2022-10-05T04:20:00.120Z,13.77
2022-10-05T04:22:35.138Z,13.72
2022-10-05T04:25:13.895Z,13.74
2022-10-05T04:27:46.803Z,13.77
2022-10-05T04:30:17.639Z,13.72
2022-10-05T04:32:51.245Z,13.77
2022-10-05T04:35:36.300Z,13.79
2022-10-05T04:38:22.639Z,13.83
2022-10-05T04:41:08.391Z,13.81
2022-10-05T04:43:50.536Z,13.85
2022-10-05T04:46:30.915Z,13.88
2022-10-05T04:49:31.784Z,13.92
2022-10-05T04:52:09.499Z,13.93
2022-10-05T04:54:51.673Z,13.97
2022-10-05T04:57:25.981Z,13.99
2022-10-05T05:00:24.259Z,13.98
2022-10-05T05:03:15.979Z,13.84
2022-10-05T05:06:16.467Z,13.98
2022-10-05T05:09:16.640Z,13.90
2022-10-05T05:11:59.234Z,13.95
2022-10-05T05:14:47.921Z,13.95
2022-10-05T05:17:31.491Z,13.95
2022-10-05T05:20:15.866Z,13.99
2022-10-05T05:22:50.828Z,14.00
2022-10-05T05:25:40.112Z,13.98
2022-10-05T05:28:24.079Z,13.93
2022-10-05T05:31:01.171Z,13.97
2022-10-05T05:33:42.211Z,13.97
2022-10-05T05:36:33.056Z,13.98
2022-10-05T05:39:20.111Z,13.83
2022-10-05T05:42:00.499Z,13.88
2022-10-05T05:44:40.007Z,13.84
2022-10-05T05:47:19.221Z,13.83
2022-10-05T05:50:06.943Z,13.93
2022-10-05T05:52:42.823Z,13.91
2022-10-05T05:55:19.882Z,13.93
2022-10-05T05:57:54.178Z,13.92
2022-10-05T06:00:29.194Z,13.97
2022-10-05T06:03:04.885Z,13.96
2022-10-05T06:05:37.261Z,14.00
2022-10-05T06:08:13.432Z,13.86
2022-10-05T06:10:48.997Z,13.98
2022-10-05T06:13:21.558Z,13.99
2022-10-05T06:15:55.242Z,14.00
2022-10-05T06:18:24.726Z,14.02
2022-10-05T06:21:00.926Z,14.01
2022-10-05T06:23:34.284Z,14.08
2022-10-05T06:26:18.958Z,14.11
2022-10-05T06:28:53.265Z,14.14
2022-10-05T06:31:42.029Z,14.17
2022-10-05T06:34:23.985Z,14.20
2022-10-05T06:36:56.614Z,14.25
2022-10-05T06:40:01.083Z,14.30
2022-10-05T06:42:48.607Z,14.34
2022-10-05T06:45:53.091Z,14.39
2022-10-05T06:48:42.687Z,14.38
2022-10-05T06:51:34.663Z,14.38
2022-10-05T06:54:46.656Z,14.45
2022-10-05T06:57:38.963Z,14.44
2022-10-05T07:00:17.901Z,14.45
2022-10-05T07:02:54.318Z,14.48
2022-10-05T07:05:58.031Z,14.19
2022-10-05T07:08:39.117Z,14.56
2022-10-05T07:11:19.853Z,14.60
2022-10-05T07:14:13.263Z,14.57
2022-10-05T07:16:54.425Z,14.60
2022-10-05T07:19:37.743Z,14.66
2022-10-05T07:22:33.303Z,14.67
2022-10-05T07:25:10.637Z,14.66
2022-10-05T07:27:49.520Z,14.73
2022-10-05T07:30:20.452Z,14.77
2022-10-05T07:32:59.770Z,14.74
2022-10-05T07:35:56.991Z,14.83
2022-10-05T07:38:32.069Z,14.78
2022-10-05T07:41:06.782Z,14.83
2022-10-05T07:44:01.496Z,14.86
2022-10-05T07:46:43.764Z,14.84
2022-10-05T07:49:19.234Z,14.92
2022-10-05T07:51:51.052Z,14.95
2022-10-05T07:54:27.901Z,14.98
2022-10-05T07:57:06.071Z,14.99
2022-10-05T07:59:41.754Z,15.02
2022-10-05T08:02:23.633Z,15.01
2022-10-05T08:04:58.656Z,14.99
2022-10-05T08:07:31.755Z,15.01
2022-10-05T08:10:06.763Z,15.03
2022-10-05T08:12:56.006Z,15.03
2022-10-05T08:15:27.384Z,15.05
2022-10-05T08:18:00.970Z,15.01
2022-10-05T08:20:40.890Z,15.01
2022-10-05T08:23:19.931Z,14.95
2022-10-05T08:25:58.274Z,15.00
2022-10-05T08:28:32.040Z,15.08
2022-10-05T08:31:04.914Z,15.11
2022-10-05T08:33:42.156Z,15.09
2022-10-05T08:36:13.917Z,15.12
2022-10-05T08:38:43.035Z,15.17
2022-10-05T08:41:38.409Z,15.22
2022-10-05T08:44:46.505Z,15.25
2022-10-05T08:47:23.661Z,15.30
2022-10-05T08:50:08.176Z,15.31
2022-10-05T08:52:53.251Z,15.37
2022-10-05T08:55:42.367Z,15.40
2022-10-05T08:58:42.739Z,15.47
2022-10-05T09:01:21.091Z,15.54
2022-10-05T09:04:18.151Z,15.60
2022-10-05T09:07:01.123Z,15.60
2022-10-05T09:10:02.221Z,15.73
2022-10-05T09:13:02.566Z,15.71
2022-10-05T09:15:55.589Z,15.78
2022-10-05T09:18:50.432Z,15.85
2022-10-05T09:21:33.910Z,15.89
2022-10-05T09:24:16.476Z,15.90
2022-10-05T09:26:45.676Z,15.94
2022-10-05T09:29:51.005Z,16.01
2022-10-05T09:32:41.200Z,16.05
2022-10-05T09:35:26.697Z,16.11
2022-10-05T09:38:13.927Z,16.23
2022-10-05T09:41:23.038Z,16.30
2022-10-05T09:44:29.028Z,16.42
2022-10-05T09:47:10.228Z,16.52
2022-10-05T09:50:04.674Z,16.64
2022-10-05T09:53:06.139Z,16.76
2022-10-05T09:56:06.157Z,17.10
2022-10-05T09:58:56.172Z,17.50
2022-10-05T10:01:37.238Z,17.37
2022-10-05T10:04:29.158Z,17.37
2022-10-05T10:07:19.012Z,17.55
2022-10-05T10:10:06.889Z,17.41
2022-10-05T10:12:47.926Z,17.44
2022-10-05T10:15:52.924Z,17.67
2022-10-05T10:18:39.709Z,18.12
2022-10-05T10:21:29.419Z,18.44
2022-10-05T10:24:14.697Z,18.35
2022-10-05T10:27:01.159Z,18.55
2022-10-05T10:29:44.059Z,18.58
2022-10-05T10:32:27.357Z,18.66
2022-10-05T10:35:18.834Z,18.30
2022-10-05T10:38:25.599Z,18.14
2022-10-05T10:41:11.821Z,18.83
2022-10-05T10:44:02.526Z,19.38
2022-10-05T10:46:39.757Z,19.19
2022-10-05T10:49:23.743Z,18.81
2022-10-05T10:52:18.786Z,19.38
2022-10-05T10:55:28.528Z,19.92
2022-10-05T10:58:28.290Z,20.28
2022-10-05T11:01:10.663Z,20.57
2022-10-05T11:04:09.699Z,20.73
2022-10-05T11:07:06.027Z,20.92
2022-10-05T11:09:56.245Z,21.15
2022-10-05T11:13:08.622Z,21.27
2022-10-05T11:19:00.684Z,21.60
2022-10-05T11:21:34.209Z,21.67
2022-10-05T11:24:28.779Z,21.82
2022-10-05T11:30:50.301Z,22.07
2022-10-05T11:33:43.567Z,22.12
2022-10-05T11:36:31.193Z,22.31
2022-10-05T11:39:25.560Z,22.36
2022-10-05T11:42:19.316Z,22.15
2022-10-05T11:45:21.729Z,21.75
2022-10-05T11:48:32.591Z,21.23
2022-10-05T11:51:23.975Z,20.64
2022-10-05T11:54:02.520Z,20.24
2022-10-05T11:56:37.101Z,19.98
2022-10-05T11:59:14.098Z,19.87
2022-10-05T12:01:51.691Z,19.73
2022-10-05T12:04:33.175Z,19.67
2022-10-05T12:07:15.731Z,19.61
2022-10-05T12:10:17.232Z,19.53
2022-10-05T12:13:00.043Z,19.50
2022-10-05T12:15:32.800Z,19.45
2022-10-05T12:18:08.361Z,19.39
2022-10-05T12:20:45.829Z,19.41
2022-10-05T12:23:18.707Z,19.38
2022-10-05T12:25:52.807Z,19.33
2022-10-05T12:28:29.029Z,19.34
2022-10-05T12:31:08.583Z,19.31
2022-10-05T12:33:43.894Z,19.35
2022-10-05T12:36:16.319Z,19.35
2022-10-05T12:38:51.329Z,19.34
2022-10-05T12:41:23.243Z,19.35
2022-10-05T12:44:05.756Z,19.41
2022-10-05T12:46:42.283Z,19.43
2022-10-05T12:49:25.083Z,19.41
2022-10-05T12:51:58.608Z,19.36
2022-10-05T12:54:39.280Z,19.36
2022-10-05T12:57:14.725Z,19.32
2022-10-05T12:59:48.674Z,19.28
2022-10-05T13:02:30.230Z,19.21
2022-10-05T13:05:03.609Z,19.24
2022-10-05T13:07:51.608Z,19.29
2022-10-05T13:10:32.209Z,19.26
2022-10-05T13:13:14.197Z,19.26
2022-10-05T13:15:50.995Z,19.25
2022-10-05T13:18:26.970Z,19.28
2022-10-05T13:21:04.547Z,19.26
2022-10-05T13:23:43.567Z,19.16
2022-10-05T13:26:15.518Z,19.24
2022-10-05T13:28:52.847Z,19.22
2022-10-05T13:31:25.617Z,19.28
2022-10-05T13:34:04.473Z,19.32
2022-10-05T13:36:45.144Z,19.26
2022-10-05T13:39:31.619Z,19.21
2022-10-05T13:42:06.774Z,19.24
2022-10-05T13:44:43.655Z,19.24
2022-10-05T13:47:20.858Z,19.16
2022-10-05T13:49:55.121Z,19.20
2022-10-05T13:52:45.430Z,19.29
2022-10-05T13:55:30.268Z,19.25
2022-10-05T13:58:05.779Z,19.29
2022-10-05T14:00:41.639Z,19.36
2022-10-05T14:03:27.477Z,19.32
2022-10-05T14:05:58.005Z,19.36
2022-10-05T14:08:32.830Z,19.38
2022-10-05T14:11:22.036Z,19.39
2022-10-05T14:13:50.701Z,19.38
2022-10-05T14:16:23.795Z,19.38
2022-10-05T14:18:54.963Z,19.37
2022-10-05T14:21:24.739Z,19.32
2022-10-05T14:23:53.184Z,19.37
2022-10-05T14:26:34.303Z,19.36
2022-10-05T14:29:16.556Z,19.40
2022-10-05T14:31:51.025Z,19.41
2022-10-05T14:34:32.221Z,19.53
2022-10-05T14:37:04.719Z,19.58
2022-10-05T14:39:35.394Z,19.45
2022-10-05T14:42:19.513Z,19.60
2022-10-05T14:45:00.322Z,19.62
2022-10-05T14:47:31.807Z,19.55
2022-10-05T14:50:15.528Z,19.49
2022-10-05T14:52:51.616Z,19.47
2022-10-05T14:55:37.296Z,19.42
2022-10-05T14:58:23.707Z,19.39
2022-10-05T15:00:56.998Z,19.39
2022-10-05T15:03:41.015Z,19.35
2022-10-05T15:06:18.302Z,19.26
2022-10-05T15:09:16.968Z,19.36
2022-10-05T15:11:50.250Z,19.33
2022-10-05T15:14:22.909Z,19.36
2022-10-05T15:16:53.859Z,19.31
2022-10-05T15:19:25.936Z,19.26
2022-10-05T15:22:18.656Z,19.28
2022-10-05T15:24:58.850Z,19.27
2022-10-05T15:27:32.714Z,19.19
2022-10-05T15:30:10.153Z,19.24
2022-10-05T15:33:05.197Z,19.21
2022-10-05T15:35:45.272Z,19.17
2022-10-05T15:38:21.767Z,19.11
2022-10-05T15:40:58.825Z,19.06
2022-10-05T15:43:32.743Z,19.01
2022-10-05T15:46:11.282Z,19.05
2022-10-05T15:48:48.582Z,19.01
2022-10-05T15:51:28.022Z,18.96
2022-10-05T15:54:17.501Z,18.98
2022-10-05T15:56:53.060Z,18.91
2022-10-05T15:59:31.569Z,18.88
2022-10-05T16:02:06.456Z,18.84
2022-10-05T16:04:45.408Z,18.80
2022-10-05T16:07:38.590Z,18.86
2022-10-05T16:10:16.794Z,18.94
2022-10-05T16:12:56.675Z,18.95
2022-10-05T16:15:33.287Z,18.97
2022-10-05T16:18:20.645Z,18.96
2022-10-05T16:20:52.937Z,18.89
2022-10-05T16:23:31.187Z,18.91
2022-10-05T16:26:13.207Z,18.87
2022-10-05T16:28:52.880Z,18.80
2022-10-05T16:31:27.751Z,18.76
2022-10-05T16:34:09.394Z,18.92
2022-10-05T16:36:49.054Z,18.96
2022-10-05T16:39:24.395Z,18.97
2022-10-05T16:42:02.719Z,18.90
2022-10-05T16:44:39.518Z,18.92
2022-10-05T16:47:27.551Z,18.91
2022-10-05T16:50:04.735Z,19.02
2022-10-05T16:52:34.639Z,19.05
2022-10-05T16:55:07.851Z,19.07
2022-10-05T16:57:40.055Z,19.04
2022-10-05T17:00:20.635Z,18.98
2022-10-05T17:03:12.040Z,18.97
2022-10-05T17:06:09.569Z,19.04
2022-10-05T17:09:11.643Z,19.02
2022-10-05T17:11:55.173Z,19.04
2022-10-05T17:14:33.922Z,19.00
2022-10-05T17:17:18.141Z,19.02
2022-10-05T17:19:56.548Z,18.99
2022-10-05T17:22:30.273Z,18.98
2022-10-05T17:25:10.783Z,18.94
2022-10-05T17:27:52.436Z,18.89
2022-10-05T17:30:50.401Z,18.81
2022-10-05T17:33:25.795Z,18.75
2022-10-05T17:36:12.820Z,18.67
2022-10-05T17:38:51.651Z,18.60
2022-10-05T17:41:21.794Z,18.53
2022-10-05T17:44:26.129Z,18.47
2022-10-05T17:46:56.488Z,18.44
2022-10-05T17:49:46.218Z,18.33
2022-10-05T17:52:43.472Z,18.33
2022-10-05T17:55:46.756Z,18.28
2022-10-05T17:59:01.998Z,18.25
2022-10-05T18:01:34.650Z,18.07
2022-10-05T18:04:34.624Z,18.23
2022-10-05T18:07:05.520Z,18.22
2022-10-05T18:09:51.596Z,18.21
2022-10-05T18:12:41.763Z,18.22
2022-10-05T18:15:38.313Z,18.23
2022-10-05T18:18:35.777Z,18.27
2022-10-05T18:21:20.324Z,18.27
2022-10-05T18:24:01.107Z,18.34
2022-10-05T18:26:38.954Z,18.32
2022-10-05T18:29:44.812Z,18.28
2022-10-05T18:32:21.311Z,18.30
2022-10-05T18:34:54.288Z,18.30
2022-10-05T18:37:31.574Z,18.28
2022-10-05T18:40:22.781Z,18.32
2022-10-05T18:43:01.100Z,18.31
2022-10-05T18:45:36.642Z,18.29
2022-10-05T18:48:18.141Z,18.27
2022-10-05T18:50:55.290Z,18.25
2022-10-05T18:53:38.281Z,18.24
2022-10-05T18:56:18.339Z,18.24
2022-10-05T18:58:57.025Z,18.31
2022-10-05T19:01:55.322Z,18.35
2022-10-05T19:04:33.449Z,18.34
2022-10-05T19:07:11.885Z,18.32
2022-10-05T19:09:54.683Z,18.29
2022-10-05T19:12:38.101Z,18.24
2022-10-05T19:15:21.842Z,18.19
2022-10-05T19:18:07.361Z,18.13
2022-10-05T19:20:41.434Z,18.11
2022-10-05T19:23:23.259Z,18.06
2022-10-05T19:25:58.667Z,18.04
2022-10-05T19:28:31.350Z,17.99
2022-10-05T19:31:15.121Z,18.02
2022-10-05T19:33:56.791Z,18.03
2022-10-05T19:36:36.959Z,18.03
2022-10-05T19:39:10.943Z,18.06
2022-10-05T19:41:55.768Z,18.09
2022-10-05T19:44:36.303Z,18.08
2022-10-05T19:47:17.337Z,18.03
2022-10-05T19:49:57.438Z,18.07
2022-10-05T19:52:30.988Z,18.06
2022-10-05T19:55:14.846Z,18.08
2022-10-05T19:57:52.664Z,18.07
2022-10-05T20:00:25.951Z,18.07
2022-10-05T20:03:10.155Z,18.05
2022-10-05T20:05:37.988Z,18.06
2022-10-05T20:08:05.834Z,18.05
2022-10-05T20:10:33.980Z,18.06
2022-10-05T20:13:05.236Z,18.03
2022-10-05T20:16:07.328Z,18.04
2022-10-05T20:19:06.942Z,18.05
2022-10-05T20:21:49.485Z,18.02
2022-10-05T20:24:19.457Z,17.93
2022-10-05T20:27:16.191Z,18.01
2022-10-05T20:29:46.820Z,17.92
2022-10-05T20:32:17.640Z,18.01
2022-10-05T20:34:47.306Z,18.03
2022-10-05T20:37:19.278Z,17.97
2022-10-05T20:39:48.600Z,18.06
2022-10-05T20:42:16.560Z,18.02
2022-10-05T20:44:45.783Z,18.08
2022-10-05T20:47:13.903Z,18.10
2022-10-05T20:49:42.010Z,18.07
2022-10-05T20:52:12.063Z,18.08
2022-10-05T20:54:40.519Z,18.13
2022-10-05T20:57:09.038Z,18.18
2022-10-05T20:59:37.484Z,18.19
2022-10-05T21:02:07.816Z,18.19
2022-10-05T21:04:42.899Z,18.19
2022-10-05T21:07:10.988Z,18.22
2022-10-05T21:09:40.883Z,18.25
2022-10-05T21:12:09.290Z,18.26
2022-10-05T21:14:37.740Z,18.27
2022-10-05T21:17:07.324Z,18.27
2022-10-05T21:19:38.468Z,18.27
2022-10-05T21:22:08.322Z,18.32
2022-10-05T21:24:37.344Z,18.26
2022-10-05T21:27:05.846Z,18.28
2022-10-05T21:29:34.418Z,18.28
2022-10-05T21:32:02.535Z,18.35
2022-10-05T21:34:31.899Z,18.34
2022-10-05T21:36:59.660Z,18.36
2022-10-05T21:39:27.471Z,18.39
2022-10-05T21:41:55.255Z,18.34
2022-10-05T21:44:23.191Z,18.35
2022-10-05T21:46:51.163Z,18.33
2022-10-05T21:49:21.615Z,18.30
2022-10-05T21:51:50.903Z,18.33
2022-10-05T21:54:21.776Z,18.31
2022-10-05T21:56:52.559Z,18.31
2022-10-05T21:59:23.272Z,18.28
2022-10-05T22:01:51.007Z,18.29
2022-10-05T22:04:19.059Z,18.27
2022-10-05T22:06:46.851Z,18.26
2022-10-05T22:09:16.056Z,18.26
2022-10-05T22:11:46.852Z,18.19
2022-10-05T22:14:16.224Z,18.31
2022-10-05T22:16:45.523Z,18.31
2022-10-05T22:19:18.123Z,18.26
2022-10-05T22:21:46.032Z,17.91
2022-10-05T22:24:15.959Z,17.71
2022-10-05T22:26:50.502Z,17.48
2022-10-05T22:29:19.223Z,17.29
2022-10-05T22:31:50.309Z,17.17
2022-10-05T22:34:19.011Z,17.08
2022-10-05T22:36:47.558Z,16.94
2022-10-05T22:39:15.703Z,16.88
2022-10-05T22:41:44.988Z,16.76
2022-10-05T22:44:12.889Z,16.68
2022-10-05T22:46:42.572Z,16.62
2022-10-05T22:49:10.641Z,16.57
2022-10-05T22:51:38.442Z,16.43
2022-10-05T22:54:06.776Z,16.43
2022-10-05T22:56:34.538Z,16.49
2022-10-05T22:59:03.763Z,16.51
2022-10-05T23:01:31.651Z,16.50
2022-10-05T23:04:04.519Z,16.56
2022-10-05T23:06:32.757Z,16.49
2022-10-05T23:09:03.195Z,16.56
2022-10-05T23:11:31.375Z,16.56
2022-10-05T23:14:00.278Z,16.59
2022-10-05T23:16:31.278Z,16.64
2022-10-05T23:19:00.996Z,16.57
2022-10-05T23:21:30.415Z,16.66
2022-10-05T23:23:58.319Z,16.68
2022-10-05T23:26:26.579Z,16.72
2022-10-05T23:28:57.019Z,16.67
2022-10-05T23:31:26.958Z,16.73
2022-10-05T23:33:56.500Z,16.71
2022-10-05T23:36:26.268Z,16.67
2022-10-05T23:39:01.234Z,16.64
2022-10-05T23:41:32.401Z,16.65
2022-10-05T23:44:00.111Z,16.64
2022-10-05T23:46:30.248Z,16.59
2022-10-05T23:48:59.365Z,16.52
2022-10-05T23:51:27.202Z,16.52
2022-10-05T23:53:57.692Z,16.41
2022-10-05T23:56:25.736Z,16.38
2022-10-05T23:58:53.553Z,16.32
